Time,TemperatureF,DewpointF,PressureIn,WindDirection,WindDirectionDegrees,WindSpeedMPH,WindSpeedGustMPH,Humidity,HourlyPrecipIn,Conditions,Clouds,dailyrainin,SolarRadiationWatts/m^2,SoftwareType,DateUTC
2013-03-01 00:00:00,39.7,32.8,29.45,WNW,290,2.0,3.0,76,0.00,,,0.00,0,WeatherCatV1.13B119,2013-03-01 05:00:00,
2013-03-01 00:05:00,39.7,32.8,29.45,NW,304,7.0,8.0,76,0.00,,,0.00,0,WeatherCatV1.13B119,2013-03-01 05:05:00,
2013-03-01 00:10:00,39.8,32.9,29.45,WNW,300,5.0,5.0,76,0.00,,,0.00,0,WeatherCatV1.13B119,2013-03-01 05:10:00,
2013-03-01 00:15:00,39.7,32.8,29.45,WNW,292,2.0,5.0,76,0.00,,,0.00,0,WeatherCatV1.13B119,2013-03-01 05:15:00,
2013-03-01 00:20:00,39.7,33.1,29.45,West,281,1.0,7.0,77,0.00,,,0.00,0,WeatherCatV1.13B119,2013-03-01 05:20:00,
2013-03-01 00:25:00,39.6,33.0,29.45,WNW,287,5.0,7.0,77,0.00,,,0.00,0,WeatherCatV1.13B119,2013-03-01 05:25:00,
2013-03-01 00:30:00,39.5,33.2,29.45,NW,306,4.0,6.0,78,0.00,,,0.00,0,WeatherCatV1.13B119,2013-03-01 05:30:00,
2013-03-01 00:35:00,39.4,33.8,29.45,NW,321,0.0,5.0,80,0.00,,,0.00,0,WeatherCatV1.13B119,2013-03-01 05:35:00,
2013-03-01 00:40:00,39.1,34.1,29.45,WNW,298,0.0,5.0,82,0.00,,,0.00,0,WeatherCatV1.13B119,2013-03-01 05:40:00,
2013-03-01 00:45:00,38.8,34.1,29.45,NW,319,0.0,4.0,83,0.00,,,0.00,0,WeatherCatV1.13B119,2013-03-01 05:45:00,
2013-03-01 00:50:00,38.4,34.3,29.45,WNW,292,1.0,6.0,85,0.00,,,0.00,0,WeatherCatV1.13B119,2013-03-01 05:50:00,
2013-03-01 00:55:00,38.2,34.4,29.45,NW,309,2.0,5.0,86,0.00,,,0.00,0,WeatherCatV1.13B119,2013-03-01 05:55:00,
2013-03-01 01:00:00,38.0,34.5,29.45,NNW,327,0.0,1.0,87,0.00,,,0.00,0,WeatherCatV1.13B119,2013-03-01 06:00:00,
2013-03-01 01:05:00,37.9,34.4,29.45,WNW,302,0.0,0.0,87,0.00,,,0.00,0,WeatherCatV1.13B119,2013-03-01 06:05:00,
2013-03-01 01:10:00,37.9,34.4,29.45,WNW,299,1.0,4.0,87,0.00,,,0.00,0,WeatherCatV1.13B119,2013-03-01 06:10:00,
2013-03-01 01:15:00,37.8,34.3,29.45,WNW,294,0.0,1.0,87,0.00,,,0.00,0,WeatherCatV1.13B119,2013-03-01 06:15:00,
2013-03-01 01:20:00,37.7,34.5,29.44,WNW,294,0.0,2.0,88,0.00,,,0.00,0,WeatherCatV1.13B119,2013-03-01 06:20:00,
2013-03-01 01:25:00,37.5,34.0,29.45,West,280,1.0,2.0,87,0.00,,,0.00,0,WeatherCatV1.13B119,2013-03-01 06:25:00,
2013-03-01 01:30:00,37.5,34.0,29.45,NW,308,0.0,6.0,87,0.00,,,0.00,0,WeatherCatV1.13B119,2013-03-01 06:30:00,
2013-03-01 01:35:00,37.5,34.0,29.45,WNW,290,0.0,2.0,87,0.00,,,0.00,0,WeatherCatV1.13B119,2013-03-01 06:35:00,
2013-03-01 01:40:00,37.5,34.0,29.45,WNW,300,0.0,1.0,87,0.00,,,0.00,0,WeatherCatV1.13B119,2013-03-01 06:40:00,
2013-03-01 01:45:00,37.3,34.1,29.45,WNW,300,1.0,2.0,88,0.00,,,0.00,0,WeatherCatV1.13B119,2013-03-01 06:45:00,
2013-03-01 01:50:00,37.1,34.2,29.44,WNW,288,0.0,2.0,89,0.00,,,0.00,0,WeatherCatV1.13B119,2013-03-01 06:50:00,
2013-03-01 01:55:00,36.9,34.0,29.44,WNW,288,0.0,2.0,89,0.00,,,0.00,0,WeatherCatV1.13B119,2013-03-01 06:55:00,
2013-03-01 02:00:00,36.8,33.9,29.44,WNW,288,0.0,0.0,89,0.00,,,0.00,0,WeatherCatV1.13B119,2013-03-01 07:00:00,
2013-03-01 02:05:00,36.6,33.7,29.44,WNW,288,0.0,0.0,89,0.00,,,0.00,0,WeatherCatV1.13B119,2013-03-01 07:05:00,
2013-03-01 02:10:00,36.6,33.9,29.45,WNW,288,0.0,0.0,90,0.00,,,0.00,0,WeatherCatV1.13B119,2013-03-01 07:10:00,
2013-03-01 02:15:00,36.4,33.8,29.45,WNW,288,0.0,0.0,90,0.00,,,0.00,0,WeatherCatV1.13B119,2013-03-01 07:15:00,
2013-03-01 02:20:00,36.2,33.3,29.45,WNW,288,0.0,0.0,89,0.00,,,0.00,0,WeatherCatV1.13B119,2013-03-01 07:20:00,
2013-03-01 02:25:00,36.2,33.3,29.44,WNW,288,0.0,0.0,89,0.00,,,0.00,0,WeatherCatV1.13B119,2013-03-01 07:25:00,
2013-03-01 02:30:00,36.3,33.1,29.44,WNW,288,1.0,2.0,88,0.00,,,0.00,0,WeatherCatV1.13B119,2013-03-01 07:30:00,
2013-03-01 02:35:00,36.4,33.2,29.45,WNW,292,2.0,3.0,88,0.00,,,0.00,0,WeatherCatV1.13B119,2013-03-01 07:35:00,
2013-03-01 02:40:00,36.6,33.4,29.44,WNW,296,0.0,0.0,88,0.00,,,0.00,0,WeatherCatV1.13B119,2013-03-01 07:40:00,
2013-03-01 02:45:00,36.5,33.0,29.45,WNW,296,0.0,0.0,87,0.00,,,0.00,0,WeatherCatV1.13B119,2013-03-01 07:45:00,
2013-03-01 02:50:00,36.5,33.3,29.45,West,265,1.0,2.0,88,0.00,,,0.00,0,WeatherCatV1.13B119,2013-03-01 07:50:00,
2013-03-01 02:55:00,36.7,32.9,29.45,WSW,258,2.0,3.0,86,0.00,,,0.00,0,WeatherCatV1.13B119,2013-03-01 07:55:00,
2013-03-01 03:00:00,36.9,33.1,29.45,WSW,257,0.0,1.0,86,0.00,,,0.00,0,WeatherCatV1.13B119,2013-03-01 08:00:00,
2013-03-01 03:05:00,36.9,32.8,29.45,WSW,257,1.0,3.0,85,0.00,,,0.00,0,WeatherCatV1.13B119,2013-03-01 08:05:00,
2013-03-01 03:10:00,37.0,32.9,29.46,WNW,299,0.0,3.0,85,0.00,,,0.00,0,WeatherCatV1.13B119,2013-03-01 08:10:00,
2013-03-01 03:15:00,37.1,32.7,29.46,WNW,289,2.0,4.0,84,0.00,,,0.00,0,WeatherCatV1.13B119,2013-03-01 08:15:00,
2013-03-01 03:20:00,37.1,32.7,29.46,West,280,2.0,4.0,84,0.00,,,0.00,0,WeatherCatV1.13B119,2013-03-01 08:20:00,
2013-03-01 03:25:00,37.1,32.7,29.46,WSW,248,3.0,4.0,84,0.00,,,0.00,0,WeatherCatV1.13B119,2013-03-01 08:25:00,
2013-03-01 03:30:00,37.1,32.4,29.46,WNW,296,1.0,4.0,83,0.00,,,0.00,0,WeatherCatV1.13B119,2013-03-01 08:30:00,
2013-03-01 03:35:00,37.1,32.4,29.46,WNW,292,1.0,4.0,83,0.00,,,0.00,0,WeatherCatV1.13B119,2013-03-01 08:35:00,
2013-03-01 03:40:00,37.0,32.3,29.47,WSW,246,2.0,6.0,83,0.00,,,0.00,0,WeatherCatV1.13B119,2013-03-01 08:40:00,
2013-03-01 03:45:00,37.0,32.3,29.47,WNW,291,0.0,3.0,83,0.00,,,0.00,0,WeatherCatV1.13B119,2013-03-01 08:45:00,
2013-03-01 03:50:00,36.9,32.2,29.47,NW,309,2.0,4.0,83,0.00,,,0.00,0,WeatherCatV1.13B119,2013-03-01 08:50:00,
2013-03-01 03:55:00,36.8,32.4,29.47,WNW,295,0.0,1.0,84,0.00,,,0.00,0,WeatherCatV1.13B119,2013-03-01 08:55:00,
2013-03-01 04:00:00,36.6,32.2,29.47,WNW,303,1.0,3.0,84,0.00,,,0.00,0,WeatherCatV1.13B119,2013-03-01 09:00:00,
2013-03-01 04:05:00,36.5,32.1,29.47,NW,307,3.0,5.0,84,0.00,,,0.00,0,WeatherCatV1.13B119,2013-03-01 09:05:00,
2013-03-01 04:10:00,36.4,32.0,29.47,WNW,291,2.0,3.0,84,0.00,,,0.00,0,WeatherCatV1.13B119,2013-03-01 09:10:00,
2013-03-01 04:16:00,36.2,32.1,29.47,WNW,289,0.0,0.0,85,0.00,,,0.00,0,WeatherCatV1.13B119,2013-03-01 09:16:00,
2013-03-01 04:21:00,36.0,31.6,29.47,West,277,0.0,2.0,84,0.00,,,0.00,0,WeatherCatV1.13B119,2013-03-01 09:21:00,
2013-03-01 04:26:00,36.0,31.9,29.47,West,274,2.0,3.0,85,0.00,,,0.00,0,WeatherCatV1.13B119,2013-03-01 09:26:00,
2013-03-01 04:31:00,35.9,31.8,29.48,WNW,295,2.0,2.0,85,0.00,,,0.00,0,WeatherCatV1.13B119,2013-03-01 09:31:00,
2013-03-01 04:36:00,35.8,31.7,29.48,West,271,0.0,2.0,85,0.00,,,0.00,0,WeatherCatV1.13B119,2013-03-01 09:36:00,
2013-03-01 04:41:00,35.6,31.5,29.48,West,274,0.0,1.0,85,0.00,,,0.00,0,WeatherCatV1.13B119,2013-03-01 09:41:00,
2013-03-01 04:46:00,35.5,31.7,29.48,WNW,294,0.0,4.0,86,0.00,,,0.00,0,WeatherCatV1.13B119,2013-03-01 09:46:00,
2013-03-01 04:51:00,35.5,31.4,29.48,NW,321,2.0,4.0,85,0.00,,,0.00,0,WeatherCatV1.13B119,2013-03-01 09:51:00,
2013-03-01 04:56:00,35.5,31.4,29.48,WNW,296,0.0,4.0,85,0.00,,,0.00,0,WeatherCatV1.13B119,2013-03-01 09:56:00,
2013-03-01 05:01:00,35.3,31.5,29.48,WNW,296,1.0,3.0,86,0.00,,,0.00,0,WeatherCatV1.13B119,2013-03-01 10:01:00,
2013-03-01 05:03:00,35.2,31.2,29.48,WNW,296,1.0,2.0,85,0.00,,,0.00,0,WeatherCatV1.13B119,2013-03-01 10:03:00,
2013-03-01 05:08:00,35.1,31.3,29.48,WNW,302,0.0,2.0,86,0.00,,,0.00,0,WeatherCatV1.13B119,2013-03-01 10:08:00,
2013-03-01 05:13:00,35.1,31.3,29.48,WNW,299,0.0,3.0,86,0.00,,,0.00,0,WeatherCatV1.13B119,2013-03-01 10:13:00,
2013-03-01 05:18:00,35.1,31.3,29.49,NW,321,1.0,2.0,86,0.00,,,0.00,0,WeatherCatV1.13B119,2013-03-01 10:18:00,
2013-03-01 05:23:00,34.9,31.1,29.49,NW,306,0.0,1.0,86,0.00,,,0.00,0,WeatherCatV1.13B119,2013-03-01 10:23:00,
2013-03-01 05:28:00,34.6,30.9,29.48,NNW,344,0.0,1.0,86,0.00,,,0.00,0,WeatherCatV1.13B119,2013-03-01 10:28:00,
2013-03-01 05:33:00,34.5,30.8,29.48,NW,314,0.0,3.0,86,0.00,,,0.00,0,WeatherCatV1.13B119,2013-03-01 10:33:00,
2013-03-01 05:38:00,34.4,30.7,29.49,WNW,301,0.0,2.0,86,0.00,,,0.00,0,WeatherCatV1.13B119,2013-03-01 10:38:00,
2013-03-01 05:43:00,34.4,30.7,29.49,WNW,292,0.0,3.0,86,0.00,,,0.00,0,WeatherCatV1.13B119,2013-03-01 10:43:00,
2013-03-01 05:48:00,34.3,30.8,29.49,WNW,292,0.0,0.0,87,0.00,,,0.00,0,WeatherCatV1.13B119,2013-03-01 10:48:00,
2013-03-01 05:53:00,34.0,30.5,29.49,WNW,292,0.0,0.0,87,0.00,,,0.00,0,WeatherCatV1.13B119,2013-03-01 10:53:00,
2013-03-01 05:58:00,33.9,30.4,29.49,WNW,294,0.0,2.0,87,0.00,,,0.00,0,WeatherCatV1.13B119,2013-03-01 10:58:00,
2013-03-01 06:03:00,33.8,30.3,29.49,WNW,294,0.0,1.0,87,0.00,,,0.00,0,WeatherCatV1.13B119,2013-03-01 11:03:00,
2013-03-01 06:08:00,33.7,30.2,29.50,WNW,294,0.0,0.0,87,0.00,,,0.00,0,WeatherCatV1.13B119,2013-03-01 11:08:00,
2013-03-01 06:13:00,33.6,30.2,29.49,WNW,294,0.0,0.0,87,0.00,,,0.00,0,WeatherCatV1.13B119,2013-03-01 11:13:00,
2013-03-01 06:18:00,33.4,30.2,29.49,WNW,294,0.0,0.0,88,0.00,,,0.00,0,WeatherCatV1.13B119,2013-03-01 11:18:00,
2013-03-01 06:23:00,33.4,30.2,29.50,WNW,294,0.0,0.0,88,0.00,,,0.00,0,WeatherCatV1.13B119,2013-03-01 11:23:00,
2013-03-01 06:28:00,33.4,30.2,29.50,WNW,294,0.0,0.0,88,0.00,,,0.00,0,WeatherCatV1.13B119,2013-03-01 11:28:00,
2013-03-01 06:33:00,33.4,30.2,29.50,WNW,294,0.0,0.0,88,0.00,,,0.00,5,WeatherCatV1.13B119,2013-03-01 11:33:00,
2013-03-01 06:38:00,33.4,30.0,29.50,WNW,294,0.0,0.0,87,0.00,,,0.00,7,WeatherCatV1.13B119,2013-03-01 11:38:00,
2013-03-01 06:43:00,33.5,30.3,29.50,WNW,294,0.0,0.0,88,0.00,,,0.00,9,WeatherCatV1.13B119,2013-03-01 11:43:00,
2013-03-01 06:48:00,33.7,30.2,29.50,WNW,295,0.0,0.0,87,0.00,,,0.00,11,WeatherCatV1.13B119,2013-03-01 11:48:00,
2013-03-01 06:53:00,34.0,30.5,29.50,WNW,302,1.0,3.0,87,0.00,,,0.00,12,WeatherCatV1.13B119,2013-03-01 11:53:00,
2013-03-01 06:58:00,34.3,30.6,29.51,West,276,1.0,4.0,86,0.00,,,0.00,14,WeatherCatV1.13B119,2013-03-01 11:58:00,
2013-03-01 07:03:00,34.5,30.5,29.51,WNW,300,0.0,3.0,85,0.00,,,0.00,16,WeatherCatV1.13B119,2013-03-01 12:03:00,
2013-03-01 07:08:00,34.6,30.6,29.51,NW,305,0.0,3.0,85,0.00,,,0.00,19,WeatherCatV1.13B119,2013-03-01 12:08:00,
2013-03-01 07:13:00,34.6,30.6,29.51,West,265,0.0,2.0,85,0.00,,,0.00,21,WeatherCatV1.13B119,2013-03-01 12:13:00,
2013-03-01 07:18:00,34.6,30.6,29.51,WNW,288,1.0,2.0,85,0.00,,,0.00,23,WeatherCatV1.13B119,2013-03-01 12:18:00,
2013-03-01 07:23:00,34.8,30.8,29.51,WNW,297,0.0,2.0,85,0.00,,,0.00,26,WeatherCatV1.13B119,2013-03-01 12:23:00,
2013-03-01 07:28:00,34.8,30.8,29.51,WNW,303,1.0,1.0,85,0.00,,,0.00,30,WeatherCatV1.13B119,2013-03-01 12:28:00,
2013-03-01 07:33:00,34.9,30.9,29.52,WNW,303,2.0,2.0,85,0.00,,,0.00,30,WeatherCatV1.13B119,2013-03-01 12:33:00,
2013-03-01 07:38:00,35.1,30.8,29.52,WNW,297,3.0,3.0,84,0.00,,,0.00,67,WeatherCatV1.13B119,2013-03-01 12:38:00,
2013-03-01 07:43:00,35.3,31.0,29.52,WNW,299,2.0,2.0,84,0.00,,,0.00,91,WeatherCatV1.13B119,2013-03-01 12:43:00,
2013-03-01 07:48:00,35.7,31.1,29.52,WNW,301,0.0,3.0,83,0.00,,,0.00,51,WeatherCatV1.13B119,2013-03-01 12:48:00,
2013-03-01 07:53:00,36.0,31.3,29.52,WNW,301,0.0,1.0,83,0.00,,,0.00,113,WeatherCatV1.13B119,2013-03-01 12:53:00,
2013-03-01 07:58:00,36.3,31.6,29.52,WNW,288,1.0,4.0,83,0.00,,,0.00,69,WeatherCatV1.13B119,2013-03-01 12:58:00,
2013-03-01 08:03:00,36.8,31.8,29.52,NNW,335,0.0,4.0,82,0.00,,,0.00,179,WeatherCatV1.13B119,2013-03-01 13:03:00,
2013-03-01 08:08:00,37.4,32.1,29.52,West,281,3.0,3.0,81,0.00,,,0.00,229,WeatherCatV1.13B119,2013-03-01 13:08:00,
2013-03-01 08:13:00,38.1,32.2,29.52,WNW,301,2.0,4.0,79,0.00,,,0.00,241,WeatherCatV1.13B119,2013-03-01 13:13:00,
2013-03-01 08:18:00,38.8,32.9,29.53,WNW,300,3.0,3.0,79,0.00,,,0.00,257,WeatherCatV1.13B119,2013-03-01 13:18:00,
2013-03-01 08:23:00,39.4,32.8,29.53,WNW,302,5.0,6.0,77,0.00,,,0.00,244,WeatherCatV1.13B119,2013-03-01 13:23:00,
2013-03-01 08:28:00,39.7,33.1,29.53,WNW,284,2.0,5.0,77,0.00,,,0.00,353,WeatherCatV1.13B119,2013-03-01 13:28:00,
2013-03-01 08:33:00,40.2,32.9,29.53,WNW,299,5.0,6.0,75,0.00,,,0.00,301,WeatherCatV1.13B119,2013-03-01 13:33:00,
2013-03-01 08:38:00,40.3,33.0,29.53,WNW,299,3.0,5.0,75,0.00,,,0.00,269,WeatherCatV1.13B119,2013-03-01 13:38:00,
2013-03-01 08:43:00,40.5,33.5,29.53,NW,308,1.0,2.0,76,0.00,,,0.00,345,WeatherCatV1.13B119,2013-03-01 13:43:00,
2013-03-01 08:48:00,40.4,33.1,29.53,NNW,334,2.0,3.0,75,0.00,,,0.00,302,WeatherCatV1.13B119,2013-03-01 13:48:00,
2013-03-01 08:53:00,40.4,33.1,29.53,WNW,298,2.0,3.0,75,0.00,,,0.00,339,WeatherCatV1.13B119,2013-03-01 13:53:00,
2013-03-01 08:58:00,40.4,32.8,29.53,WNW,294,0.0,2.0,74,0.00,,,0.00,364,WeatherCatV1.13B119,2013-03-01 13:58:00,
2013-03-01 09:03:00,41.1,33.8,29.53,NNW,338,1.0,2.0,75,0.00,,,0.00,244,WeatherCatV1.13B119,2013-03-01 14:03:00,
2013-03-01 09:08:00,41.1,32.8,29.53,WNW,299,4.0,5.0,72,0.00,,,0.00,422,WeatherCatV1.13B119,2013-03-01 14:08:00,
2013-03-01 09:13:00,40.9,32.9,29.53,NW,311,2.0,4.0,73,0.00,,,0.00,413,WeatherCatV1.13B119,2013-03-01 14:13:00,
2013-03-01 09:18:00,41.4,32.7,29.53,NW,306,2.0,5.0,71,0.00,,,0.00,308,WeatherCatV1.13B119,2013-03-01 14:18:00,
2013-03-01 09:23:00,41.5,32.5,29.53,NW,309,3.0,5.0,70,0.00,,,0.00,420,WeatherCatV1.13B119,2013-03-01 14:23:00,
2013-03-01 09:28:00,41.7,33.3,29.53,NW,304,1.0,3.0,72,0.00,,,0.00,420,WeatherCatV1.13B119,2013-03-01 14:28:00,
2013-03-01 09:33:00,42.4,33.3,29.53,NW,316,5.0,6.0,70,0.00,,,0.00,390,WeatherCatV1.13B119,2013-03-01 14:33:00,
2013-03-01 09:38:00,42.1,32.7,29.53,NW,308,2.0,7.0,69,0.00,,,0.00,462,WeatherCatV1.13B119,2013-03-01 14:38:00,
2013-03-01 09:43:00,42.2,33.1,29.53,NW,323,1.0,5.0,70,0.00,,,0.00,348,WeatherCatV1.13B119,2013-03-01 14:43:00,
2013-03-01 09:48:00,42.3,32.9,29.53,NW,324,0.0,5.0,69,0.00,,,0.00,301,WeatherCatV1.13B119,2013-03-01 14:48:00,
2013-03-01 09:53:00,42.3,33.2,29.54,WNW,290,4.0,5.0,70,0.00,,,0.00,246,WeatherCatV1.13B119,2013-03-01 14:53:00,
2013-03-01 09:58:00,41.9,32.1,29.54,NW,305,1.0,5.0,68,0.00,,,0.00,283,WeatherCatV1.13B119,2013-03-01 14:58:00,
2013-03-01 10:03:00,43.2,34.1,29.54,NW,308,3.0,3.0,70,0.00,,,0.00,487,WeatherCatV1.13B119,2013-03-01 15:03:00,
2013-03-01 10:08:00,43.4,32.8,29.53,WNW,284,1.0,5.0,66,0.00,,,0.00,431,WeatherCatV1.13B119,2013-03-01 15:08:00,
2013-03-01 10:13:00,43.7,33.1,29.54,WNW,297,0.0,5.0,66,0.00,,,0.00,677,WeatherCatV1.13B119,2013-03-01 15:13:00,
2013-03-01 10:18:00,44.6,32.8,29.54,West,276,2.0,9.0,63,0.00,,,0.00,714,WeatherCatV1.13B119,2013-03-01 15:18:00,
2013-03-01 10:23:00,44.9,33.5,29.54,NW,323,3.0,6.0,64,0.00,,,0.00,786,WeatherCatV1.13B119,2013-03-01 15:23:00,
2013-03-01 10:28:00,45.0,32.8,29.54,WNW,302,6.0,8.0,62,0.00,,,0.00,754,WeatherCatV1.13B119,2013-03-01 15:28:00,
2013-03-01 10:33:00,44.9,32.7,29.54,WNW,297,2.0,4.0,62,0.00,,,0.00,403,WeatherCatV1.13B119,2013-03-01 15:33:00,
2013-03-01 10:38:00,45.1,32.5,29.54,WNW,295,3.0,6.0,61,0.00,,,0.00,332,WeatherCatV1.13B119,2013-03-01 15:38:00,
2013-03-01 10:43:00,43.8,32.4,29.54,NW,326,2.0,4.0,64,0.00,,,0.00,202,WeatherCatV1.13B119,2013-03-01 15:43:00,
2013-03-01 10:48:00,43.1,32.5,29.54,WNW,299,4.0,6.0,66,0.00,,,0.00,185,WeatherCatV1.13B119,2013-03-01 15:48:00,
2013-03-01 10:53:00,42.8,32.2,29.54,NW,309,2.0,3.0,66,0.00,,,0.00,179,WeatherCatV1.13B119,2013-03-01 15:53:00,
2013-03-01 10:58:00,42.5,32.0,29.54,NW,309,3.0,7.0,66,0.00,,,0.00,155,WeatherCatV1.13B119,2013-03-01 15:58:00,
2013-03-01 11:03:00,42.4,33.0,29.54,WNW,297,2.0,3.0,69,0.00,,,0.00,148,WeatherCatV1.13B119,2013-03-01 16:03:00,
2013-03-01 11:08:00,42.2,33.1,29.54,WNW,300,1.0,3.0,70,0.00,,,0.00,179,WeatherCatV1.13B119,2013-03-01 16:08:00,
2013-03-01 11:13:00,42.4,31.9,29.54,WNW,287,2.0,6.0,66,0.00,,,0.00,271,WeatherCatV1.13B119,2013-03-01 16:13:00,
2013-03-01 11:18:00,42.8,33.0,29.54,NW,306,2.0,4.0,68,0.00,,,0.00,274,WeatherCatV1.13B119,2013-03-01 16:18:00,
2013-03-01 11:23:00,43.1,33.3,29.54,NW,317,2.0,4.0,68,0.00,,,0.00,239,WeatherCatV1.13B119,2013-03-01 16:23:00,
2013-03-01 11:28:00,42.8,32.2,29.54,WNW,290,3.0,5.0,66,0.00,,,0.00,197,WeatherCatV1.13B119,2013-03-01 16:28:00,
2013-03-01 11:33:00,42.6,32.0,29.54,WNW,299,2.0,6.0,66,0.00,,,0.00,156,WeatherCatV1.13B119,2013-03-01 16:33:00,
2013-03-01 11:38:00,42.3,31.8,29.54,WNW,298,2.0,3.0,66,0.00,,,0.00,127,WeatherCatV1.13B119,2013-03-01 16:38:00,
2013-03-01 11:43:00,42.3,31.8,29.54,WNW,285,3.0,5.0,66,0.00,,,0.00,151,WeatherCatV1.13B119,2013-03-01 16:43:00,
2013-03-01 11:48:00,42.2,32.0,29.54,NW,310,0.0,3.0,67,0.00,,,0.00,186,WeatherCatV1.13B119,2013-03-01 16:48:00,
2013-03-01 11:53:00,42.7,31.8,29.54,WNW,292,1.0,4.0,65,0.00,,,0.00,216,WeatherCatV1.13B119,2013-03-01 16:53:00,
2013-03-01 11:58:00,42.8,32.2,29.54,NW,309,0.0,3.0,66,0.00,,,0.00,218,WeatherCatV1.13B119,2013-03-01 16:58:00,
2013-03-01 12:03:00,43.1,32.5,29.54,WNW,296,0.0,4.0,66,0.00,,,0.00,220,WeatherCatV1.13B119,2013-03-01 17:03:00,
2013-03-01 12:08:00,43.2,32.6,29.54,WNW,298,0.0,4.0,66,0.00,,,0.00,253,WeatherCatV1.13B119,2013-03-01 17:08:00,
2013-03-01 12:13:00,43.8,32.8,29.53,North,351,2.0,6.0,65,0.00,,,0.00,260,WeatherCatV1.13B119,2013-03-01 17:13:00,
2013-03-01 12:18:00,43.9,32.5,29.53,NW,304,2.0,6.0,64,0.00,,,0.00,267,WeatherCatV1.13B119,2013-03-01 17:18:00,
2013-03-01 12:23:00,43.7,31.5,29.53,NW,307,3.0,7.0,62,0.00,,,0.00,276,WeatherCatV1.13B119,2013-03-01 17:23:00,
2013-03-01 12:28:00,43.8,32.0,29.53,WNW,293,2.0,4.0,63,0.00,,,0.00,255,WeatherCatV1.13B119,2013-03-01 17:28:00,
2013-03-01 12:33:00,43.8,32.0,29.53,NW,316,1.0,8.0,63,0.00,,,0.00,292,WeatherCatV1.13B119,2013-03-01 17:33:00,
2013-03-01 12:38:00,44.0,32.2,29.53,NW,305,4.0,5.0,63,0.00,,,0.00,330,WeatherCatV1.13B119,2013-03-01 17:38:00,
2013-03-01 12:43:00,43.9,31.7,29.53,WNW,290,5.0,10.0,62,0.00,,,0.00,281,WeatherCatV1.13B119,2013-03-01 17:43:00,
2013-03-01 12:48:00,43.6,31.5,29.53,WNW,302,4.0,7.0,62,0.00,,,0.00,253,WeatherCatV1.13B119,2013-03-01 17:48:00,
2013-03-01 12:53:00,43.3,31.2,29.53,West,280,2.0,6.0,62,0.00,,,0.00,236,WeatherCatV1.13B119,2013-03-01 17:53:00,
2013-03-01 12:58:00,43.6,31.8,29.53,NW,309,2.0,3.0,63,0.00,,,0.00,246,WeatherCatV1.13B119,2013-03-01 17:58:00,
2013-03-01 13:03:00,43.8,31.6,29.53,WNW,300,3.0,6.0,62,0.00,,,0.00,237,WeatherCatV1.13B119,2013-03-01 18:03:00,
2013-03-01 13:08:00,43.5,31.4,29.52,WNW,298,3.0,5.0,62,0.00,,,0.00,211,WeatherCatV1.13B119,2013-03-01 18:08:00,
2013-03-01 13:13:00,43.7,31.1,29.52,WNW,288,6.0,8.0,61,0.00,,,0.00,213,WeatherCatV1.13B119,2013-03-01 18:13:00,
2013-03-01 13:18:00,43.4,30.9,29.52,WNW,299,5.0,7.0,61,0.00,,,0.00,229,WeatherCatV1.13B119,2013-03-01 18:18:00,
2013-03-01 13:23:00,43.4,31.3,29.52,NW,321,4.0,5.0,62,0.00,,,0.00,239,WeatherCatV1.13B119,2013-03-01 18:23:00,
2013-03-01 13:28:00,43.8,30.8,29.52,NW,323,3.0,8.0,60,0.00,,,0.00,251,WeatherCatV1.13B119,2013-03-01 18:28:00,
2013-03-01 13:33:00,43.9,31.7,29.52,WNW,292,3.0,3.0,62,0.00,,,0.00,236,WeatherCatV1.13B119,2013-03-01 18:33:00,
2013-03-01 13:38:00,44.0,32.2,29.52,North,349,2.0,2.0,63,0.00,,,0.00,214,WeatherCatV1.13B119,2013-03-01 18:38:00,
2013-03-01 13:43:00,43.9,30.9,29.52,NW,317,1.0,6.0,60,0.00,,,0.00,214,WeatherCatV1.13B119,2013-03-01 18:43:00,
2013-03-01 13:48:00,43.7,31.9,29.52,West,277,0.0,2.0,63,0.00,,,0.00,216,WeatherCatV1.13B119,2013-03-01 18:48:00,
2013-03-01 13:53:00,44.2,31.6,29.52,WSW,253,3.0,5.0,61,0.00,,,0.00,241,WeatherCatV1.13B119,2013-03-01 18:53:00,
2013-03-01 13:58:00,44.1,31.9,29.52,WNW,299,4.0,5.0,62,0.00,,,0.00,227,WeatherCatV1.13B119,2013-03-01 18:58:00,
2013-03-01 14:03:00,44.4,31.8,29.52,West,281,5.0,5.0,61,0.00,,,0.00,225,WeatherCatV1.13B119,2013-03-01 19:03:00,
2013-03-01 14:08:00,44.3,31.3,29.52,WSW,254,3.0,6.0,60,0.00,,,0.00,223,WeatherCatV1.13B119,2013-03-01 19:08:00,
2013-03-01 14:13:00,44.3,32.1,29.52,WSW,252,4.0,5.0,62,0.00,,,0.00,225,WeatherCatV1.13B119,2013-03-01 19:13:00,
2013-03-01 14:19:00,44.3,31.7,29.52,WSW,257,2.0,3.0,61,0.00,,,0.00,239,WeatherCatV1.13B119,2013-03-01 19:19:00,
2013-03-01 14:24:00,44.4,31.4,29.52,WNW,288,1.0,4.0,60,0.00,,,0.00,227,WeatherCatV1.13B119,2013-03-01 19:24:00,
2013-03-01 14:29:00,44.9,31.9,29.52,West,267,4.0,6.0,60,0.00,,,0.00,221,WeatherCatV1.13B119,2013-03-01 19:29:00,
2013-03-01 14:34:00,44.8,31.8,29.52,WNW,292,4.0,4.0,60,0.00,,,0.00,181,WeatherCatV1.13B119,2013-03-01 19:34:00,
2013-03-01 14:39:00,44.6,30.7,29.52,NW,313,3.0,6.0,58,0.00,,,0.00,130,WeatherCatV1.13B119,2013-03-01 19:39:00,
2013-03-01 14:44:00,44.2,29.9,29.52,West,266,2.0,8.0,57,0.00,,,0.00,98,WeatherCatV1.13B119,2013-03-01 19:44:00,
2013-03-01 14:49:00,44.1,29.9,29.52,WNW,299,1.0,8.0,57,0.00,,,0.00,104,WeatherCatV1.13B119,2013-03-01 19:49:00,
2013-03-01 14:54:00,44.0,28.9,29.52,WNW,303,4.0,10.0,55,0.00,,,0.00,77,WeatherCatV1.13B119,2013-03-01 19:54:00,
2013-03-01 14:59:00,43.9,28.8,29.52,WNW,294,7.0,9.0,55,0.00,,,0.00,69,WeatherCatV1.13B119,2013-03-01 19:59:00,
2013-03-01 15:04:00,43.7,29.0,29.52,WNW,297,3.0,7.0,56,0.00,,,0.00,63,WeatherCatV1.13B119,2013-03-01 20:04:00,
2013-03-01 15:09:00,43.6,29.4,29.52,NW,308,5.0,12.0,57,0.00,,,0.00,65,WeatherCatV1.13B119,2013-03-01 20:09:00,
2013-03-01 15:14:00,43.5,29.7,29.52,WNW,302,6.0,8.0,58,0.00,,,0.00,69,WeatherCatV1.13B119,2013-03-01 20:14:00,
2013-03-01 15:19:00,43.4,29.6,29.52,NNW,329,1.0,4.0,58,0.00,,,0.00,72,WeatherCatV1.13B119,2013-03-01 20:19:00,
2013-03-01 15:24:00,43.4,29.6,29.52,NW,315,6.0,6.0,58,0.00,,,0.00,76,WeatherCatV1.13B119,2013-03-01 20:24:00,
2013-03-01 15:29:00,43.4,29.2,29.52,West,277,10.0,10.0,57,0.00,,,0.00,74,WeatherCatV1.13B119,2013-03-01 20:29:00,
2013-03-01 15:34:00,43.4,30.0,29.53,NW,304,3.0,3.0,59,0.00,,,0.00,72,WeatherCatV1.13B119,2013-03-01 20:34:00,
2013-03-01 15:39:00,43.4,30.0,29.52,West,277,3.0,7.0,59,0.00,,,0.00,62,WeatherCatV1.13B119,2013-03-01 20:39:00,
2013-03-01 15:44:00,43.2,29.9,29.52,West,275,4.0,6.0,59,0.00,,,0.00,46,WeatherCatV1.13B119,2013-03-01 20:44:00,
2013-03-01 15:49:00,43.1,29.8,29.53,WNW,286,2.0,5.0,59,0.00,,,0.00,39,WeatherCatV1.13B119,2013-03-01 20:49:00,
2013-03-01 15:54:00,43.0,30.1,29.53,NW,305,2.0,5.0,60,0.00,,,0.00,37,WeatherCatV1.13B119,2013-03-01 20:54:00,
2013-03-01 15:59:00,42.8,29.9,29.53,West,264,5.0,5.0,60,0.00,,,0.00,35,WeatherCatV1.13B119,2013-03-01 20:59:00,
2013-03-01 16:04:00,42.8,29.9,29.53,NW,305,6.0,7.0,60,0.00,,,0.00,33,WeatherCatV1.13B119,2013-03-01 21:04:00,
2013-03-01 16:09:00,42.8,30.3,29.53,WNW,299,6.0,7.0,61,0.00,,,0.00,28,WeatherCatV1.13B119,2013-03-01 21:09:00,
2013-03-01 16:14:00,42.8,30.3,29.53,NW,315,4.0,4.0,61,0.00,,,0.00,25,WeatherCatV1.13B119,2013-03-01 21:14:00,
2013-03-01 16:19:00,42.8,30.3,29.53,WNW,298,3.0,5.0,61,0.00,,,0.00,25,WeatherCatV1.13B119,2013-03-01 21:19:00,
2013-03-01 16:24:00,42.7,30.2,29.53,WNW,292,4.0,5.0,61,0.00,,,0.00,23,WeatherCatV1.13B119,2013-03-01 21:24:00,
2013-03-01 16:29:00,42.6,29.7,29.53,NNE,14,4.0,9.0,60,0.00,,,0.00,19,WeatherCatV1.13B119,2013-03-01 21:29:00,
2013-03-01 16:34:00,42.6,30.1,29.53,WNW,301,2.0,3.0,61,0.00,,,0.00,18,WeatherCatV1.13B119,2013-03-01 21:34:00,
2013-03-01 16:39:00,42.5,29.6,29.53,WNW,297,6.0,7.0,60,0.00,,,0.00,16,WeatherCatV1.13B119,2013-03-01 21:39:00,
2013-03-01 16:44:00,42.5,29.6,29.53,NW,308,1.0,9.0,60,0.00,,,0.00,12,WeatherCatV1.13B119,2013-03-01 21:44:00,
2013-03-01 16:49:00,42.4,29.9,29.54,WNW,284,2.0,5.0,61,0.00,,,0.00,11,WeatherCatV1.13B119,2013-03-01 21:49:00,
2013-03-01 16:54:00,42.3,29.0,29.54,WNW,296,1.0,7.0,59,0.00,,,0.00,11,WeatherCatV1.13B119,2013-03-01 21:54:00,
2013-03-01 16:59:00,42.3,29.4,29.54,West,281,2.0,6.0,60,0.00,,,0.00,9,WeatherCatV1.13B119,2013-03-01 21:59:00,
2013-03-01 17:04:00,42.3,29.8,29.54,WNW,292,2.0,4.0,61,0.00,,,0.00,9,WeatherCatV1.13B119,2013-03-01 22:04:00,
2013-03-01 17:09:00,42.2,29.3,29.54,WNW,297,0.0,7.0,60,0.00,,,0.00,7,WeatherCatV1.13B119,2013-03-01 22:09:00,
2013-03-01 17:14:00,42.2,29.3,29.54,NNW,338,2.0,7.0,60,0.00,,,0.00,5,WeatherCatV1.13B119,2013-03-01 22:14:00,
2013-03-01 17:19:00,42.1,29.2,29.54,NW,306,0.0,5.0,60,0.00,,,0.00,5,WeatherCatV1.13B119,2013-03-01 22:19:00,
2013-03-01 17:24:00,42.1,29.2,29.55,NW,309,0.0,7.0,60,0.00,,,0.00,0,WeatherCatV1.13B119,2013-03-01 22:24:00,
2013-03-01 17:29:00,42.0,29.5,29.55,NW,306,3.0,3.0,61,0.00,,,0.00,0,WeatherCatV1.13B119,2013-03-01 22:29:00,
2013-03-01 17:34:00,42.0,29.1,29.55,WNW,302,4.0,6.0,60,0.00,,,0.00,0,WeatherCatV1.13B119,2013-03-01 22:34:00,
2013-03-01 17:39:00,41.9,29.4,29.55,WNW,288,3.0,5.0,61,0.00,,,0.00,0,WeatherCatV1.13B119,2013-03-01 22:39:00,
2013-03-01 17:44:00,41.9,29.8,29.56,WNW,301,1.0,4.0,62,0.00,,,0.00,0,WeatherCatV1.13B119,2013-03-01 22:44:00,
2013-03-01 17:49:00,41.9,29.4,29.56,WNW,300,6.0,7.0,61,0.00,,,0.00,0,WeatherCatV1.13B119,2013-03-01 22:49:00,
2013-03-01 17:54:00,41.9,29.4,29.56,West,271,4.0,5.0,61,0.00,,,0.00,0,WeatherCatV1.13B119,2013-03-01 22:54:00,
2013-03-01 17:59:00,41.8,28.9,29.56,West,275,2.0,4.0,60,0.00,,,0.00,0,WeatherCatV1.13B119,2013-03-01 22:59:00,
2013-03-01 18:04:00,41.8,29.4,29.56,WNW,285,1.0,4.0,61,0.00,,,0.00,0,WeatherCatV1.13B119,2013-03-01 23:04:00,
2013-03-01 18:09:00,41.8,28.9,29.56,NW,312,2.0,6.0,60,0.00,,,0.00,0,WeatherCatV1.13B119,2013-03-01 23:09:00,
2013-03-01 18:14:00,41.7,29.3,29.56,NW,323,3.0,6.0,61,0.00,,,0.00,0,WeatherCatV1.13B119,2013-03-01 23:14:00,
2013-03-01 18:19:00,41.7,29.7,29.56,WNW,300,2.0,4.0,62,0.00,,,0.00,0,WeatherCatV1.13B119,2013-03-01 23:19:00,
2013-03-01 18:24:00,41.6,29.6,29.57,NW,304,3.0,4.0,62,0.00,,,0.00,0,WeatherCatV1.13B119,2013-03-01 23:24:00,
2013-03-01 18:29:00,41.6,29.6,29.57,WNW,292,4.0,7.0,62,0.00,,,0.00,0,WeatherCatV1.13B119,2013-03-01 23:29:00,
2013-03-01 18:34:00,41.6,29.6,29.57,WNW,302,7.0,9.0,62,0.00,,,0.00,0,WeatherCatV1.13B119,2013-03-01 23:34:00,
2013-03-01 18:39:00,41.6,30.0,29.57,West,261,5.0,6.0,63,0.00,,,0.00,0,WeatherCatV1.13B119,2013-03-01 23:39:00,
2013-03-01 18:44:00,41.5,29.9,29.57,NW,304,6.0,7.0,63,0.00,,,0.00,0,WeatherCatV1.13B119,2013-03-01 23:44:00,
2013-03-01 18:49:00,41.4,29.8,29.58,NW,305,4.0,6.0,63,0.00,,,0.00,0,WeatherCatV1.13B119,2013-03-01 23:49:00,
2013-03-01 18:54:00,41.3,30.1,29.58,WNW,299,4.0,7.0,64,0.00,,,0.00,0,WeatherCatV1.13B119,2013-03-01 23:54:00,
2013-03-01 18:59:00,41.3,30.1,29.58,WNW,292,5.0,6.0,64,0.00,,,0.00,0,WeatherCatV1.13B119,2013-03-01 23:59:00,
2013-03-01 19:04:00,41.2,30.0,29.58,NW,304,4.0,12.0,64,0.00,,,0.00,0,WeatherCatV1.13B119,2013-03-02 00:04:00,
2013-03-01 19:09:00,41.1,29.9,29.58,WNW,294,5.0,6.0,64,0.00,,,0.00,0,WeatherCatV1.13B119,2013-03-02 00:09:00,
2013-03-01 19:14:00,41.0,30.1,29.58,NW,311,4.0,6.0,65,0.00,,,0.00,0,WeatherCatV1.13B119,2013-03-02 00:14:00,
2013-03-01 19:19:00,41.0,30.1,29.58,WNW,294,3.0,9.0,65,0.00,,,0.00,0,WeatherCatV1.13B119,2013-03-02 00:19:00,
2013-03-01 19:24:00,40.8,30.3,29.58,WNW,298,3.0,5.0,66,0.00,,,0.00,0,WeatherCatV1.13B119,2013-03-02 00:24:00,
2013-03-01 19:29:00,40.7,30.6,29.58,NW,321,6.0,11.0,67,0.00,,,0.00,0,WeatherCatV1.13B119,2013-03-02 00:29:00,
2013-03-01 19:34:00,40.6,30.9,29.59,NW,317,6.0,7.0,68,0.00,,,0.00,0,WeatherCatV1.13B119,2013-03-02 00:34:00,
2013-03-01 19:39:00,40.5,30.8,29.59,NW,304,6.0,6.0,68,0.00,,,0.00,0,WeatherCatV1.13B119,2013-03-02 00:39:00,
2013-03-01 19:44:00,40.3,31.0,29.59,NW,304,7.0,7.0,69,0.00,,,0.00,0,WeatherCatV1.13B119,2013-03-02 00:44:00,
2013-03-01 19:46:00,40.3,31.0,29.59,West,261,5.0,11.0,69,0.00,,,0.00,0,WeatherCatV1.13B119,2013-03-02 00:46:00,
2013-03-01 19:51:00,40.1,30.8,29.59,West,272,5.0,10.0,69,0.00,,,0.00,0,WeatherCatV1.13B119,2013-03-02 00:51:00,
2013-03-01 19:56:00,40.0,31.0,29.59,WNW,296,4.0,6.0,70,0.00,,,0.00,0,WeatherCatV1.13B119,2013-03-02 00:56:00,
2013-03-01 20:01:00,39.9,30.9,29.59,WNW,302,4.0,7.0,70,0.00,,,0.00,0,WeatherCatV1.13B119,2013-03-02 01:01:00,
2013-03-01 20:06:00,39.8,30.8,29.59,WNW,284,6.0,9.0,70,0.00,,,0.00,0,WeatherCatV1.13B119,2013-03-02 01:06:00,
2013-03-01 20:11:00,39.7,31.1,29.59,NNW,329,5.0,6.0,71,0.00,,,0.00,0,WeatherCatV1.13B119,2013-03-02 01:11:00,
2013-03-01 20:16:00,39.7,31.1,29.59,WNW,296,3.0,8.0,71,0.00,,,0.00,0,WeatherCatV1.13B119,2013-03-02 01:16:00,
2013-03-01 20:21:00,39.6,31.0,29.60,NW,306,3.0,5.0,71,0.00,,,0.00,0,WeatherCatV1.13B119,2013-03-02 01:21:00,
2013-03-01 20:26:00,39.6,31.0,29.60,WNW,302,3.0,5.0,71,0.00,,,0.00,0,WeatherCatV1.13B119,2013-03-02 01:26:00,
2013-03-01 20:31:00,39.6,31.0,29.60,NW,323,3.0,5.0,71,0.00,,,0.00,0,WeatherCatV1.13B119,2013-03-02 01:31:00,
2013-03-01 20:36:00,39.5,30.9,29.60,NW,307,4.0,7.0,71,0.00,,,0.00,0,WeatherCatV1.13B119,2013-03-02 01:36:00,
2013-03-01 20:41:00,39.5,30.5,29.60,WNW,291,4.0,9.0,70,0.00,,,0.00,0,WeatherCatV1.13B119,2013-03-02 01:41:00,
2013-03-01 20:46:00,39.4,30.4,29.60,West,268,4.0,7.0,70,0.00,,,0.00,0,WeatherCatV1.13B119,2013-03-02 01:46:00,
2013-03-01 20:51:00,39.4,30.4,29.60,NNW,336,3.0,4.0,70,0.00,,,0.00,0,WeatherCatV1.13B119,2013-03-02 01:51:00,
2013-03-01 20:56:00,39.3,30.3,29.60,WNW,294,3.0,5.0,70,0.00,,,0.00,0,WeatherCatV1.13B119,2013-03-02 01:56:00,
2013-03-01 21:01:00,39.3,30.3,29.60,WNW,303,5.0,5.0,70,0.00,,,0.00,0,WeatherCatV1.13B119,2013-03-02 02:01:00,
2013-03-01 21:06:00,39.3,30.7,29.60,WNW,298,7.0,7.0,71,0.00,,,0.00,0,WeatherCatV1.13B119,2013-03-02 02:06:00,
2013-03-01 21:11:00,39.1,30.5,29.61,WNW,282,4.0,7.0,71,0.00,,,0.00,0,WeatherCatV1.13B119,2013-03-02 02:11:00,
2013-03-01 21:16:00,39.1,29.8,29.61,NW,311,1.0,8.0,69,0.00,,,0.00,0,WeatherCatV1.13B119,2013-03-02 02:16:00,
2013-03-01 21:21:00,39.1,29.8,29.61,WNW,303,1.0,6.0,69,0.00,,,0.00,0,WeatherCatV1.13B119,2013-03-02 02:21:00,
2013-03-01 21:26:00,39.0,29.7,29.61,WNW,298,3.0,5.0,69,0.00,,,0.00,0,WeatherCatV1.13B119,2013-03-02 02:26:00,
2013-03-01 21:31:00,39.0,29.7,29.61,NW,304,3.0,6.0,69,0.00,,,0.00,0,WeatherCatV1.13B119,2013-03-02 02:31:00,
2013-03-01 21:36:00,38.9,29.6,29.60,WNW,301,3.0,6.0,69,0.00,,,0.00,0,WeatherCatV1.13B119,2013-03-02 02:36:00,
2013-03-01 21:41:00,38.9,29.6,29.61,West,263,4.0,5.0,69,0.00,,,0.00,0,WeatherCatV1.13B119,2013-03-02 02:41:00,
2013-03-01 21:46:00,38.8,29.5,29.61,WNW,302,7.0,7.0,69,0.00,,,0.00,0,WeatherCatV1.13B119,2013-03-02 02:46:00,
2013-03-01 21:51:00,38.8,29.2,29.61,WNW,289,2.0,8.0,68,0.00,,,0.00,0,WeatherCatV1.13B119,2013-03-02 02:51:00,
2013-03-01 21:56:00,38.7,29.4,29.61,WNW,293,3.0,8.0,69,0.00,,,0.00,0,WeatherCatV1.13B119,2013-03-02 02:56:00,
2013-03-01 22:01:00,38.7,29.1,29.61,WNW,296,8.0,8.0,68,0.00,,,0.00,0,WeatherCatV1.13B119,2013-03-02 03:01:00,
2013-03-01 22:06:00,38.7,29.1,29.61,NW,306,5.0,7.0,68,0.00,,,0.00,0,WeatherCatV1.13B119,2013-03-02 03:06:00,
2013-03-01 22:11:00,38.6,28.6,29.61,NW,311,1.0,8.0,67,0.00,,,0.00,0,WeatherCatV1.13B119,2013-03-02 03:11:00,
2013-03-01 22:16:00,38.6,29.0,29.61,WNW,291,4.0,5.0,68,0.00,,,0.00,0,WeatherCatV1.13B119,2013-03-02 03:16:00,
2013-03-01 22:21:00,38.4,28.8,29.61,WNW,286,4.0,5.0,68,0.00,,,0.00,0,WeatherCatV1.13B119,2013-03-02 03:21:00,
2013-03-01 22:26:00,38.4,28.8,29.61,WNW,295,4.0,7.0,68,0.00,,,0.00,0,WeatherCatV1.13B119,2013-03-02 03:26:00,
2013-03-01 22:31:00,38.3,28.3,29.61,WNW,302,2.0,9.0,67,0.00,,,0.00,0,WeatherCatV1.13B119,2013-03-02 03:31:00,
2013-03-01 22:36:00,38.2,28.2,29.61,NW,305,1.0,7.0,67,0.00,,,0.00,0,WeatherCatV1.13B119,2013-03-02 03:36:00,
2013-03-01 22:41:00,38.2,28.6,29.61,WNW,299,6.0,7.0,68,0.00,,,0.00,0,WeatherCatV1.13B119,2013-03-02 03:41:00,
2013-03-01 22:46:00,38.1,28.8,29.61,NW,319,1.0,3.0,69,0.00,,,0.00,0,WeatherCatV1.13B119,2013-03-02 03:46:00,
2013-03-01 22:51:00,38.0,28.4,29.61,WNW,294,2.0,5.0,68,0.00,,,0.00,0,WeatherCatV1.13B119,2013-03-02 03:51:00,
2013-03-01 22:56:00,38.0,28.7,29.61,WNW,287,3.0,3.0,69,0.00,,,0.00,0,WeatherCatV1.13B119,2013-03-02 03:56:00,
2013-03-01 23:01:00,37.9,28.3,29.62,WNW,303,3.0,5.0,68,0.00,,,0.00,0,WeatherCatV1.13B119,2013-03-02 04:01:00,
2013-03-01 23:06:00,37.9,28.3,29.62,WSW,251,2.0,5.0,68,0.00,,,0.00,0,WeatherCatV1.13B119,2013-03-02 04:06:00,
2013-03-01 23:11:00,37.8,28.2,29.61,NW,317,0.0,3.0,68,0.00,,,0.00,0,WeatherCatV1.13B119,2013-03-02 04:11:00,
2013-03-01 23:16:00,37.8,28.2,29.61,WNW,303,1.0,5.0,68,0.00,,,0.00,0,WeatherCatV1.13B119,2013-03-02 04:16:00,
2013-03-01 23:21:00,37.8,28.2,29.61,WNW,300,5.0,5.0,68,0.00,,,0.00,0,WeatherCatV1.13B119,2013-03-02 04:21:00,
2013-03-01 23:26:00,37.7,28.1,29.61,WNW,297,5.0,5.0,68,0.00,,,0.00,0,WeatherCatV1.13B119,2013-03-02 04:26:00,
2013-03-01 23:31:00,37.6,28.0,29.61,NW,316,2.0,4.0,68,0.00,,,0.00,0,WeatherCatV1.13B119,2013-03-02 04:31:00,
2013-03-01 23:36:00,37.5,27.6,29.61,NW,306,1.0,6.0,67,0.00,,,0.00,0,WeatherCatV1.13B119,2013-03-02 04:36:00,
2013-03-01 23:41:00,37.5,27.9,29.61,WNW,300,3.0,6.0,68,0.00,,,0.00,0,WeatherCatV1.13B119,2013-03-02 04:41:00,
2013-03-01 23:46:00,37.4,27.8,29.61,WNW,300,2.0,5.0,68,0.00,,,0.00,0,WeatherCatV1.13B119,2013-03-02 04:46:00,
2013-03-01 23:51:00,37.4,27.8,29.61,WNW,289,5.0,5.0,68,0.00,,,0.00,0,WeatherCatV1.13B119,2013-03-02 04:51:00,
2013-03-01 23:56:00,37.3,27.7,29.61,WNW,296,3.0,8.0,68,0.00,,,0.00,0,WeatherCatV1.13B119,2013-03-02 04:56:00,